sensor_id;sensor_type;location;lat;lon;timestamp;pressure;altitude;pressure_sealevel;temperature
49154;BMP280;49455;52.252;9.124;2024-01-30T00:03:50;100844.09;;;7.13
49154;BMP280;49455;52.252;9.124;2024-01-30T00:08:50;100840.56;;;7.05
49154;BMP280;49455;52.252;9.124;2024-01-30T00:13:54;100852.53;;;7.25
49154;BMP280;49455;52.252;9.124;2024-01-30T00:18:55;100844.59;;;7.18
49154;BMP280;49455;52.252;9.124;2024-01-30T00:23:55;100842.13;;;7.22
49154;BMP280;49455;52.252;9.124;2024-01-30T00:28:56;100840.94;;;7.47
49154;BMP280;49455;52.252;9.124;2024-01-30T00:33:56;100846.84;;;7.47
49154;BMP280;49455;52.252;9.124;2024-01-30T00:38:57;100839.19;;;7.51
49154;BMP280;49455;52.252;9.124;2024-01-30T00:43:57;100836.94;;;7.49
49154;BMP280;49455;52.252;9.124;2024-01-30T00:48:58;100846.00;;;7.43
49154;BMP280;49455;52.252;9.124;2024-01-30T00:53:58;100843.66;;;7.38
49154;BMP280;49455;52.252;9.124;2024-01-30T00:58:59;100849.28;;;7.28
49154;BMP280;49455;52.252;9.124;2024-01-30T01:03:59;100844.78;;;7.25
49154;BMP280;49455;52.252;9.124;2024-01-30T01:09:00;100854.06;;;7.14
49154;BMP280;49455;52.252;9.124;2024-01-30T01:14:00;100856.97;;;7.13
49154;BMP280;49455;52.252;9.124;2024-01-30T01:19:01;100842.69;;;7.15
49154;BMP280;49455;52.252;9.124;2024-01-30T01:24:01;100856.84;;;7.09
49154;BMP280;49455;52.252;9.124;2024-01-30T01:29:02;100847.31;;;7.10
49154;BMP280;49455;52.252;9.124;2024-01-30T01:34:02;100852.31;;;7.18
49154;BMP280;49455;52.252;9.124;2024-01-30T01:39:03;100842.72;;;7.03
49154;BMP280;49455;52.252;9.124;2024-01-30T01:44:04;100836.06;;;7.02
49154;BMP280;49455;52.252;9.124;2024-01-30T01:49:05;100835.63;;;7.12
49154;BMP280;49455;52.252;9.124;2024-01-30T01:54:06;100834.13;;;7.11
49154;BMP280;49455;52.252;9.124;2024-01-30T01:59:07;100814.81;;;7.05
49154;BMP280;49455;52.252;9.124;2024-01-30T02:04:08;100817.50;;;7.09
49154;BMP280;49455;52.252;9.124;2024-01-30T02:09:09;100820.06;;;7.09
49154;BMP280;49455;52.252;9.124;2024-01-30T02:14:09;100802.38;;;7.07
49154;BMP280;49455;52.252;9.124;2024-01-30T02:19:10;100803.66;;;7.01
49154;BMP280;49455;52.252;9.124;2024-01-30T02:24:10;100796.72;;;7.02
49154;BMP280;49455;52.252;9.124;2024-01-30T02:29:11;100796.00;;;6.89
49154;BMP280;49455;52.252;9.124;2024-01-30T02:34:11;100783.75;;;6.98
49154;BMP280;49455;52.252;9.124;2024-01-30T02:39:12;100775.78;;;7.03
49154;BMP280;49455;52.252;9.124;2024-01-30T02:44:12;100773.63;;;7.05
49154;BMP280;49455;52.252;9.124;2024-01-30T02:49:13;100769.88;;;7.03
49154;BMP280;49455;52.252;9.124;2024-01-30T02:54:13;100760.13;;;7.24
49154;BMP280;49455;52.252;9.124;2024-01-30T02:59:14;100760.53;;;7.10
49154;BMP280;49455;52.252;9.124;2024-01-30T03:04:14;100752.09;;;6.98
49154;BMP280;49455;52.252;9.124;2024-01-30T03:09:18;100742.16;;;6.84
49154;BMP280;49455;52.252;9.124;2024-01-30T03:14:18;100750.78;;;6.76
49154;BMP280;49455;52.252;9.124;2024-01-30T03:19:19;100751.88;;;6.63
49154;BMP280;49455;52.252;9.124;2024-01-30T03:24:19;100755.00;;;6.57
49154;BMP280;49455;52.252;9.124;2024-01-30T03:29:20;100734.09;;;6.58
49154;BMP280;49455;52.252;9.124;2024-01-30T03:34:20;100716.56;;;6.48
49154;BMP280;49455;52.252;9.124;2024-01-30T03:39:21;100718.00;;;6.33
49154;BMP280;49455;52.252;9.124;2024-01-30T03:44:21;100721.41;;;6.25
49154;BMP280;49455;52.252;9.124;2024-01-30T03:49:22;100732.25;;;6.19
49154;BMP280;49455;52.252;9.124;2024-01-30T03:54:22;100716.38;;;6.17
49154;BMP280;49455;52.252;9.124;2024-01-30T03:59:23;100711.97;;;6.29
49154;BMP280;49455;52.252;9.124;2024-01-30T04:04:23;100714.13;;;6.27
49154;BMP280;49455;52.252;9.124;2024-01-30T04:09:23;100715.31;;;6.30
49154;BMP280;49455;52.252;9.124;2024-01-30T04:14:24;100706.19;;;6.32
49154;BMP280;49455;52.252;9.124;2024-01-30T04:19:24;100724.84;;;6.17
49154;BMP280;49455;52.252;9.124;2024-01-30T04:24:25;100723.69;;;6.03
49154;BMP280;49455;52.252;9.124;2024-01-30T04:29:25;100706.63;;;5.98
49154;BMP280;49455;52.252;9.124;2024-01-30T04:34:26;100705.81;;;5.94
49154;BMP280;49455;52.252;9.124;2024-01-30T04:39:26;100718.97;;;5.93
49154;BMP280;49455;52.252;9.124;2024-01-30T04:44:27;100710.41;;;6.01
49154;BMP280;49455;52.252;9.124;2024-01-30T04:49:27;100695.41;;;6.03
49154;BMP280;49455;52.252;9.124;2024-01-30T04:54:28;100698.84;;;6.07
49154;BMP280;49455;52.252;9.124;2024-01-30T04:59:28;100702.06;;;6.16
49154;BMP280;49455;52.252;9.124;2024-01-30T05:04:29;100715.31;;;6.18
49154;BMP280;49455;52.252;9.124;2024-01-30T05:09:29;100697.94;;;6.27
49154;BMP280;49455;52.252;9.124;2024-01-30T05:14:30;100715.41;;;6.33
49154;BMP280;49455;52.252;9.124;2024-01-30T09:40:22;100667.75;;;8.42
49154;BMP280;49455;52.252;9.124;2024-01-30T09:45:24;100659.81;;;8.50
49154;BMP280;49455;52.252;9.124;2024-01-30T09:50:26;100678.19;;;8.68
49154;BMP280;49455;52.252;9.124;2024-01-30T09:55:27;100680.22;;;8.78
49154;BMP280;49455;52.252;9.124;2024-01-30T10:00:27;100662.09;;;8.97
49154;BMP280;49455;52.252;9.124;2024-01-30T10:05:31;100667.16;;;8.90
49154;BMP280;49455;52.252;9.124;2024-01-30T10:10:32;100666.94;;;8.98
49154;BMP280;49455;52.252;9.124;2024-01-30T10:15:32;100664.69;;;9.19
49154;BMP280;49455;52.252;9.124;2024-01-30T10:20:33;100666.22;;;9.24
49154;BMP280;49455;52.252;9.124;2024-01-30T10:25:34;100658.97;;;9.33
49154;BMP280;49455;52.252;9.124;2024-01-30T10:30:35;100661.31;;;9.41
49154;BMP280;49455;52.252;9.124;2024-01-30T10:35:35;100655.34;;;9.37
49154;BMP280;49455;52.252;9.124;2024-01-30T10:40:38;100652.66;;;9.30
49154;BMP280;49455;52.252;9.124;2024-01-30T10:45:40;100648.84;;;9.47
49154;BMP280;49455;52.252;9.124;2024-01-30T10:50:43;100655.38;;;9.41
49154;BMP280;49455;52.252;9.124;2024-01-30T10:55:45;100639.59;;;9.46
49154;BMP280;49455;52.252;9.124;2024-01-30T11:00:47;100662.63;;;9.58
49154;BMP280;49455;52.252;9.124;2024-01-30T11:05:50;100670.38;;;9.58
49154;BMP280;49455;52.252;9.124;2024-01-30T11:10:55;100655.84;;;9.76
49154;BMP280;49455;52.252;9.124;2024-01-30T11:16:07;100662.81;;;9.98
49154;BMP280;49455;52.252;9.124;2024-01-30T11:21:25;100658.38;;;10.32
49154;BMP280;49455;52.252;9.124;2024-01-30T11:26:28;100650.50;;;10.58
49154;BMP280;49455;52.252;9.124;2024-01-30T11:31:30;100650.19;;;10.63
49154;BMP280;49455;52.252;9.124;2024-01-30T11:36:32;100617.09;;;10.46
49154;BMP280;49455;52.252;9.124;2024-01-30T11:41:37;100615.25;;;10.46
49154;BMP280;49455;52.252;9.124;2024-01-30T11:46:54;100604.34;;;10.67
49154;BMP280;49455;52.252;9.124;2024-01-30T11:52:36;100615.91;;;10.80
49154;BMP280;49455;52.252;9.124;2024-01-30T11:57:41;100629.97;;;10.82
49154;BMP280;49455;52.252;9.124;2024-01-30T12:02:42;100625.16;;;10.77
49154;BMP280;49455;52.252;9.124;2024-01-30T12:07:49;100633.13;;;10.62
49154;BMP280;49455;52.252;9.124;2024-01-30T12:12:50;100633.91;;;10.66
49154;BMP280;49455;52.252;9.124;2024-01-30T12:17:50;100644.75;;;10.78
49154;BMP280;49455;52.252;9.124;2024-01-30T12:22:51;100640.75;;;10.84
49154;BMP280;49455;52.252;9.124;2024-01-30T12:27:52;100649.72;;;10.94
49154;BMP280;49455;52.252;9.124;2024-01-30T12:33:29;100650.47;;;11.01
49154;BMP280;49455;52.252;9.124;2024-01-30T12:38:40;100659.19;;;11.30
49154;BMP280;49455;52.252;9.124;2024-01-30T12:43:41;100659.94;;;11.30
49154;BMP280;49455;52.252;9.124;2024-01-30T12:48:42;100663.97;;;11.24
49154;BMP280;49455;52.252;9.124;2024-01-30T12:53:42;100660.66;;;11.27
49154;BMP280;49455;52.252;9.124;2024-01-30T12:58:43;100668.38;;;11.20
49154;BMP280;49455;52.252;9.124;2024-01-30T13:03:43;100665.44;;;11.18
49154;BMP280;49455;52.252;9.124;2024-01-30T13:08:44;100664.28;;;11.19
49154;BMP280;49455;52.252;9.124;2024-01-30T13:13:44;100667.63;;;11.16
49154;BMP280;49455;52.252;9.124;2024-01-30T13:18:45;100678.75;;;11.20
49154;BMP280;49455;52.252;9.124;2024-01-30T13:23:45;100683.25;;;11.30
49154;BMP280;49455;52.252;9.124;2024-01-30T13:28:48;100682.19;;;11.35
49154;BMP280;49455;52.252;9.124;2024-01-30T13:33:49;100679.22;;;11.33
49154;BMP280;49455;52.252;9.124;2024-01-30T13:38:50;100685.13;;;11.33
49154;BMP280;49455;52.252;9.124;2024-01-30T13:43:50;100678.84;;;11.34
49154;BMP280;49455;52.252;9.124;2024-01-30T13:48:51;100665.13;;;11.30
49154;BMP280;49455;52.252;9.124;2024-01-30T13:54:01;100675.09;;;11.28
49154;BMP280;49455;52.252;9.124;2024-01-30T13:59:01;100669.16;;;11.28
49154;BMP280;49455;52.252;9.124;2024-01-30T14:04:02;100668.44;;;11.27
49154;BMP280;49455;52.252;9.124;2024-01-30T14:09:03;100665.13;;;11.30
49154;BMP280;49455;52.252;9.124;2024-01-30T14:14:03;100661.06;;;11.33
49154;BMP280;49455;52.252;9.124;2024-01-30T14:19:05;100671.44;;;11.36
49154;BMP280;49455;52.252;9.124;2024-01-30T14:24:05;100669.22;;;11.35
49154;BMP280;49455;52.252;9.124;2024-01-30T14:29:06;100665.13;;;11.30
49154;BMP280;49455;52.252;9.124;2024-01-30T14:34:07;100660.31;;;11.32
49154;BMP280;49455;52.252;9.124;2024-01-30T14:39:07;100660.69;;;11.34
49154;BMP280;49455;52.252;9.124;2024-01-30T14:44:08;100672.13;;;11.30
49154;BMP280;49455;52.252;9.124;2024-01-30T14:49:08;100666.94;;;11.30
49154;BMP280;49455;52.252;9.124;2024-01-30T14:54:12;100674.00;;;11.29
49154;BMP280;49455;52.252;9.124;2024-01-30T14:59:12;100686.19;;;11.25
49154;BMP280;49455;52.252;9.124;2024-01-30T15:04:13;100689.16;;;11.27
49154;BMP280;49455;52.252;9.124;2024-01-30T15:09:14;100692.47;;;11.24
49154;BMP280;49455;52.252;9.124;2024-01-30T15:14:17;100690.63;;;11.25
49154;BMP280;49455;52.252;9.124;2024-01-30T15:19:18;100699.47;;;11.20
49154;BMP280;49455;52.252;9.124;2024-01-30T15:24:19;100689.13;;;11.20
49154;BMP280;49455;52.252;9.124;2024-01-30T15:29:20;100691.72;;;11.20
49154;BMP280;49455;52.252;9.124;2024-01-30T15:34:23;100701.34;;;11.23
49154;BMP280;49455;52.252;9.124;2024-01-30T15:39:24;100715.03;;;11.20
49154;BMP280;49455;52.252;9.124;2024-01-30T15:44:25;100702.41;;;11.15
49154;BMP280;49455;52.252;9.124;2024-01-30T15:49:28;100703.91;;;11.16
49154;BMP280;49455;52.252;9.124;2024-01-30T15:54:28;100710.53;;;11.14
49154;BMP280;49455;52.252;9.124;2024-01-30T15:59:29;100716.44;;;11.11
49154;BMP280;49455;52.252;9.124;2024-01-30T16:04:29;100731.56;;;11.05
49154;BMP280;49455;52.252;9.124;2024-01-30T16:09:30;100738.16;;;10.99
49154;BMP280;49455;52.252;9.124;2024-01-30T16:14:31;100735.91;;;10.94
49154;BMP280;49455;52.252;9.124;2024-01-30T16:19:31;100719.97;;;10.92
49154;BMP280;49455;52.252;9.124;2024-01-30T16:24:32;100731.06;;;10.89
49154;BMP280;49455;52.252;9.124;2024-01-30T16:29:33;100731.06;;;10.89
49154;BMP280;49455;52.252;9.124;2024-01-30T16:34:34;100737.72;;;10.90
49154;BMP280;49455;52.252;9.124;2024-01-30T16:39:35;100742.16;;;10.86
49154;BMP280;49455;52.252;9.124;2024-01-30T16:44:35;100740.59;;;10.82
49154;BMP280;49455;52.252;9.124;2024-01-30T16:49:36;100757.94;;;10.78
49154;BMP280;49455;52.252;9.124;2024-01-30T16:54:36;100754.22;;;10.75
49154;BMP280;49455;52.252;9.124;2024-01-30T16:59:37;100755.41;;;10.81
49154;BMP280;49455;52.252;9.124;2024-01-30T17:04:37;100759.47;;;10.82
49154;BMP280;49455;52.252;9.124;2024-01-30T17:09:38;100768.66;;;10.76
49154;BMP280;49455;52.252;9.124;2024-01-30T17:14:38;100769.41;;;10.77
49154;BMP280;49455;52.252;9.124;2024-01-30T17:19:39;100780.13;;;10.75
49154;BMP280;49455;52.252;9.124;2024-01-30T17:24:39;100781.19;;;10.71
49154;BMP280;49455;52.252;9.124;2024-01-30T17:29:40;100786.06;;;10.72
49154;BMP280;49455;52.252;9.124;2024-01-30T17:34:40;100799.28;;;10.67
49154;BMP280;49455;52.252;9.124;2024-01-30T17:39:41;100809.22;;;10.65
49154;BMP280;49455;52.252;9.124;2024-01-30T17:44:41;100811.00;;;10.54
49154;BMP280;49455;52.252;9.124;2024-01-30T17:49:42;100816.69;;;10.41
49154;BMP280;49455;52.252;9.124;2024-01-30T17:54:43;100829.56;;;10.34
49154;BMP280;49455;52.252;9.124;2024-01-30T17:59:43;100835.75;;;10.26
49154;BMP280;49455;52.252;9.124;2024-01-30T18:04:44;100843.66;;;10.10
49154;BMP280;49455;52.252;9.124;2024-01-30T18:09:44;100845.53;;;9.87
49154;BMP280;49455;52.252;9.124;2024-01-30T18:14:48;100864.88;;;9.74
49154;BMP280;49455;52.252;9.124;2024-01-30T18:19:49;100871.81;;;9.66
49154;BMP280;49455;52.252;9.124;2024-01-30T18:30:08;100870.75;;;9.29
49154;BMP280;49455;52.252;9.124;2024-01-30T18:35:08;100876.03;;;9.14
49154;BMP280;49455;52.252;9.124;2024-01-30T18:40:09;100887.31;;;9.06
49154;BMP280;49455;52.252;9.124;2024-01-30T18:45:10;100893.13;;;9.03
49154;BMP280;49455;52.252;9.124;2024-01-30T18:50:11;100896.06;;;9.01
49154;BMP280;49455;52.252;9.124;2024-01-30T18:55:11;100901.94;;;8.98
49154;BMP280;49455;52.252;9.124;2024-01-30T19:00:12;100896.00;;;8.98
49154;BMP280;49455;52.252;9.124;2024-01-30T19:05:13;100894.41;;;8.90
49154;BMP280;49455;52.252;9.124;2024-01-30T19:10:14;100894.00;;;8.72
49154;BMP280;49455;52.252;9.124;2024-01-30T19:15:14;100899.75;;;8.66
49154;BMP280;49455;52.252;9.124;2024-01-30T19:20:15;100891.19;;;8.62
49154;BMP280;49455;52.252;9.124;2024-01-30T19:25:15;100897.94;;;8.66
49154;BMP280;49455;52.252;9.124;2024-01-30T19:30:16;100903.25;;;8.73
49154;BMP280;49455;52.252;9.124;2024-01-30T19:35:16;100904.00;;;8.74
49154;BMP280;49455;52.252;9.124;2024-01-30T19:40:17;100903.59;;;8.72
49154;BMP280;49455;52.252;9.124;2024-01-30T19:45:18;100910.94;;;8.70
49154;BMP280;49455;52.252;9.124;2024-01-30T19:50:19;100917.41;;;8.64
49154;BMP280;49455;52.252;9.124;2024-01-30T19:55:19;100935.09;;;8.62
49154;BMP280;49455;52.252;9.124;2024-01-30T20:00:20;100937.00;;;8.65
49154;BMP280;49455;52.252;9.124;2024-01-30T20:05:20;100942.56;;;8.67
49154;BMP280;49455;52.252;9.124;2024-01-30T20:10:21;100945.75;;;8.60
49154;BMP280;49455;52.252;9.124;2024-01-30T20:15:21;100944.59;;;8.58
49154;BMP280;49455;52.252;9.124;2024-01-30T20:20:22;100953.41;;;8.57
49154;BMP280;49455;52.252;9.124;2024-01-30T20:25:22;100944.41;;;8.51
49154;BMP280;49455;52.252;9.124;2024-01-30T20:30:23;100961.22;;;8.45
49154;BMP280;49455;52.252;9.124;2024-01-30T20:35:24;100984.06;;;8.43
49154;BMP280;49455;52.252;9.124;2024-01-30T20:40:24;100984.28;;;8.38
49154;BMP280;49455;52.252;9.124;2024-01-30T20:45:25;100984.56;;;8.33
49154;BMP280;49455;52.252;9.124;2024-01-30T20:50:25;100982.19;;;8.28
49154;BMP280;49455;52.252;9.124;2024-01-30T20:55:26;100989.84;;;8.24
49154;BMP280;49455;52.252;9.124;2024-01-30T21:00:26;100996.00;;;8.20
49154;BMP280;49455;52.252;9.124;2024-01-30T21:05:27;100990.66;;;8.13
49154;BMP280;49455;52.252;9.124;2024-01-30T21:10:27;100993.50;;;8.07
49154;BMP280;49455;52.252;9.124;2024-01-30T21:15:28;100997.03;;;8.03
49154;BMP280;49455;52.252;9.124;2024-01-30T21:20:29;101012.13;;;8.01
49154;BMP280;49455;52.252;9.124;2024-01-30T21:25:29;101021.47;;;7.93
49154;BMP280;49455;52.252;9.124;2024-01-30T21:30:30;101027.63;;;7.89
49154;BMP280;49455;52.252;9.124;2024-01-30T21:35:30;101021.28;;;7.86
49154;BMP280;49455;52.252;9.124;2024-01-30T21:40:31;101027.75;;;7.80
49154;BMP280;49455;52.252;9.124;2024-01-30T21:45:31;101029.31;;;7.69
49154;BMP280;49455;52.252;9.124;2024-01-30T21:50:32;101025.69;;;7.58
49154;BMP280;49455;52.252;9.124;2024-01-30T21:55:33;101033.31;;;7.55
